Time;durP1;ratioP1;P1;durP2;ratioP2;P2;SDS_P1;SDS_P2;PMS_P1;PMS_P2;Temp;Humidity;BMP_temperature;BMP_pressure;BME280_temperature;BME280_humidity;BME280_pressure;Samples;Min_cycle;Max_cycle;Signal;HPM_P1;HPM_P2
2022/11/27 00:00:44;;;;;;;35.15;8.18;;;;;;;;;;5050996;28;20033;-69
2022/11/27 00:03:11;;;;;;;26.77;8.52;;;;;;;;;;5052261;28;20094;-70
2022/11/27 00:05:37;;;;;;;33.42;8.50;;;;;;;;;;5050787;28;20037;-70
2022/11/27 00:08:03;;;;;;;35.15;8.45;;;;;;;;;;5033384;28;20048;-70
2022/11/27 00:10:29;;;;;;;29.67;8.02;;;;;;;;;;5050938;28;20037;-70
2022/11/27 00:12:55;;;;;;;31.08;8.00;;;;;;;;;;5034630;28;20080;-70
2022/11/27 00:15:21;;;;;;;21.92;7.60;;;;;;;;;;5050712;28;20045;-70
2022/11/27 00:17:47;;;;;;;28.20;7.88;;;;;;;;;;5048105;28;20079;-69
2022/11/27 00:20:13;;;;;;;23.98;7.70;;;;;;;;;;5034238;28;20037;-69
2022/11/27 00:22:39;;;;;;;25.80;7.25;;;;;;;;;;5050592;28;20037;-69
2022/11/27 00:25:06;;;;;;;32.65;7.95;;;;;;;;;;5051850;28;20116;-70
2022/11/27 00:27:32;;;;;;;23.42;7.47;;;;;;;;;;5050709;28;20045;-70
2022/11/27 00:29:58;;;;;;;32.53;8.25;;;;;;;;;;5034068;28;20037;-69
2022/11/27 00:32:24;;;;;;;29.05;7.72;;;;;;;;;;5050456;28;20753;-69
2022/11/27 00:34:50;;;;;;;23.67;7.30;;;;;;;;;;5050648;28;20041;-70
2022/11/27 00:37:16;;;;;;;25.08;7.55;;;;;;;;;;5034285;28;20485;-70
2022/11/27 00:39:42;;;;;;;17.65;6.93;;;;;;;;;;5033852;28;20080;-70
2022/11/27 00:42:08;;;;;;;26.27;7.70;;;;;;;;;;5051802;28;20098;-69
2022/11/27 00:44:34;;;;;;;29.80;7.95;;;;;;;;;;5050854;28;20083;-69
2022/11/27 00:47:01;;;;;;;32.70;9.45;;;;;;;;;;5050594;28;20033;-68
2022/11/27 00:49:27;;;;;;;28.33;7.57;;;;;;;;;;5016501;28;20044;-69
2022/11/27 00:51:53;;;;;;;25.45;7.35;;;;;;;;;;5050731;28;20087;-69
2022/11/27 00:54:19;;;;;;;24.50;7.53;;;;;;;;;;5049226;28;20045;-69
2022/11/27 00:56:45;;;;;;;28.05;8.07;;;;;;;;;;5049864;28;20460;-69
2022/11/27 00:59:12;;;;;;;23.02;7.50;;;;;;;;;;5051956;28;20374;-69
2022/11/27 01:01:39;;;;;;;28.23;7.68;;;;;;;;;;5051861;28;20052;-69
2022/11/27 01:04:06;;;;;;;26.88;7.57;;;;;;;;;;5050419;28;20132;-69
2022/11/27 01:06:32;;;;;;;31.95;9.25;;;;;;;;;;5051545;28;20055;-69
2022/11/27 01:08:58;;;;;;;24.08;7.25;;;;;;;;;;5050132;28;20103;-69
2022/11/27 01:11:27;;;;;;;28.95;7.60;;;;;;;;;;5050255;28;20033;-69
2022/11/27 01:13:55;;;;;;;27.30;8.48;;;;;;;;;;5071633;28;20501;-69
2022/11/27 01:16:22;;;;;;;28.10;8.23;;;;;;;;;;5050012;28;20033;-69
2022/11/27 01:18:49;;;;;;;30.25;8.57;;;;;;;;;;5050177;28;20044;-69
2022/11/27 01:21:16;;;;;;;21.77;7.40;;;;;;;;;;5037254;28;20389;-69
2022/11/27 01:23:42;;;;;;;32.03;8.32;;;;;;;;;;5053650;28;20041;-69
2022/11/27 01:26:09;;;;;;;30.33;8.10;;;;;;;;;;5053896;28;20047;-69
2022/11/27 01:28:38;;;;;;;31.77;9.45;;;;;;;;;;5053956;28;20052;-69
2022/11/27 01:31:08;;;;;;;27.92;8.13;;;;;;;;;;5053838;28;20099;-69
2022/11/27 01:33:34;;;;;;;26.05;8.35;;;;;;;;;;5053799;28;20068;-69
2022/11/27 01:36:02;;;;;;;24.30;8.65;;;;;;;;;;5053926;28;20036;-69
2022/11/27 01:38:29;;;;;;;29.83;8.05;;;;;;;;;;5053953;28;20276;-69
2022/11/27 01:41:13;;;;;;;25.52;8.52;;;;;;;;;;5053372;28;20513;-69
2022/11/27 01:43:43;;;;;;;28.65;8.20;;;;;;;;;;5053609;28;20123;-69
2022/11/27 01:46:31;;;;;;;21.88;8.38;;;;;;;;;;5053257;28;20052;-69
2022/11/27 01:49:20;;;;;;;26.38;8.23;;;;;;;;;;5053457;28;20060;-69
2022/11/27 01:51:49;;;;;;;25.73;8.18;;;;;;;;;;5050110;28;20068;-69
2022/11/27 01:54:16;;;;;;;34.03;8.00;;;;;;;;;;5034872;28;20040;-69
2022/11/27 01:56:44;;;;;;;28.65;7.68;;;;;;;;;;5053127;28;20071;-69
2022/11/27 01:59:10;;;;;;;27.50;8.52;;;;;;;;;;5053107;28;20489;-69
2022/11/27 02:01:36;;;;;;;23.20;7.05;;;;;;;;;;5053428;28;20048;-69
2022/11/27 02:04:02;;;;;;;28.25;7.85;;;;;;;;;;5054319;28;20029;-69
2022/11/27 02:06:28;;;;;;;21.88;7.32;;;;;;;;;;5053136;28;20073;-69
2022/11/27 02:08:55;;;;;;;25.75;8.05;;;;;;;;;;5052794;28;20056;-69
2022/11/27 02:11:30;;;;;;;24.27;7.57;;;;;;;;;;5052941;28;20040;-69
2022/11/27 02:14:08;;;;;;;25.83;7.78;;;;;;;;;;5053229;28;20041;-69
2022/11/27 02:16:45;;;;;;;31.92;7.05;;;;;;;;;;5052899;28;20044;-69
2022/11/27 02:19:25;;;;;;;21.77;6.95;;;;;;;;;;5052872;28;20041;-69
2022/11/27 02:21:51;;;;;;;25.30;7.45;;;;;;;;;;5052854;28;20095;-69
2022/11/27 02:24:38;;;;;;;21.40;6.70;;;;;;;;;;5052551;28;20481;-69
2022/11/27 02:27:46;;;;;;;17.05;6.40;;;6.50;99.90;;;;;;5052590;28;20551;-69
2022/11/27 02:30:12;;;;;;;25.92;7.20;;;;;;;;;;5036229;28;20095;-69
2022/11/27 02:32:47;;;;;;;23.25;6.45;;;;;;;;;;5035053;28;20079;-69
2022/11/27 02:35:19;;;;;;;24.42;7.18;;;;;;;;;;5051701;28;20037;-69
2022/11/27 02:37:49;;;;;;;18.20;6.25;;;;;;;;;;5080670;28;20071;-69
2022/11/27 02:40:23;;;;;;;20.60;6.80;;;;;;;;;;5052278;28;20516;-69
2022/11/27 02:42:52;;;;;;;23.40;7.03;;;;;;;;;;5052395;28;20040;-69
2022/11/27 02:45:21;;;;;;;19.25;6.03;;;;;;;;;;5052563;28;20060;-68
2022/11/27 02:47:48;;;;;;;22.20;7.20;;;;;;;;;;5036313;28;20055;-68
2022/11/27 02:50:22;;;;;;;29.17;6.82;;;;;;;;;;5052624;28;20080;-68
2022/11/27 02:52:50;;;;;;;23.50;6.38;;;;;;;;;;5053695;28;20052;-68
2022/11/27 02:55:20;;;;;;;19.20;6.38;;;;;;;;;;5052492;28;20063;-69
2022/11/27 02:57:46;;;;;;;22.63;7.32;;;;;;;;;;5052040;28;20504;-69
2022/11/27 03:00:13;;;;;;;23.13;7.80;;;;;;;;;;5051877;28;20155;-68
2022/11/27 03:02:42;;;;;;;20.85;7.05;;;;;;;;;;5052050;28;20068;-69
2022/11/27 03:05:10;;;;;;;23.15;7.35;;;;;;;;;;5053196;28;20037;-69
2022/11/27 03:08:02;;;;;;;20.25;7.32;;;;;;;;;;5051752;28;20473;-69
2022/11/27 03:10:52;;;;;;;24.55;6.50;;;6.60;99.90;;;;;;5050211;28;20089;-69
2022/11/27 03:13:18;;;;;;;19.08;6.63;;;;;;;;;;5049562;28;20053;-69
2022/11/27 03:15:56;;;;;;;21.20;6.70;;;;;;;;;;5049862;28;20037;-69
2022/11/27 03:18:36;;;;;;;23.48;6.97;;;;;;;;;;5051797;28;20044;-69
2022/11/27 03:21:11;;;;;;;17.23;6.35;;;;;;;;;;5051542;28;20127;-69
2022/11/27 03:23:37;;;;;;;23.98;7.43;;;;;;;;;;5051526;28;20124;-69
2022/11/27 03:26:03;;;;;;;24.67;7.13;;;;;;;;;;5051628;28;20142;-69
2022/11/27 03:28:30;;;;;;;19.92;6.88;;;;;;;;;;5049029;28;20036;-69
2022/11/27 03:30:56;;;;;;;20.48;7.90;;;;;;;;;;5051535;28;20033;-69
2022/11/27 03:33:22;;;;;;;28.30;7.07;;;;;;;;;;5052869;28;20095;-69
2022/11/27 03:35:48;;;;;;;21.38;7.75;;;;;;;;;;5051379;28;20041;-69
2022/11/27 03:38:14;;;;;;;20.88;7.63;;;;;;;;;;5051044;28;20040;-69
2022/11/27 03:40:59;;;;;;;24.30;7.57;;;;;;;;;;5052122;28;20036;-69
2022/11/27 03:43:27;;;;;;;18.83;7.65;;;;;;;;;;5052600;28;20523;-69
2022/11/27 03:46:04;;;;;;;23.83;8.20;;;;;;;;;;5051709;28;20036;-69
2022/11/27 03:48:35;;;;;;;28.52;8.25;;;;;;;;;;5049438;28;20041;-69
2022/11/27 03:51:08;;;;;;;21.77;7.28;;;;;;;;;;5051046;28;20037;-69
2022/11/27 03:53:37;;;;;;;30.00;7.70;;;;;;;;;;5052473;28;20112;-69
2022/11/27 03:56:06;;;;;;;25.30;7.88;;;;;;;;;;5052185;28;20036;-70
2022/11/27 03:58:38;;;;;;;24.33;8.23;;;;;;;;;;5050848;28;20433;-69
2022/11/27 04:01:07;;;;;;;22.00;8.00;;;;;;;;;;5051237;28;20028;-70
2022/11/27 04:03:34;;;;;;;22.80;7.88;;;;;;;;;;5052347;28;20116;-69
2022/11/27 04:06:01;;;;;;;24.10;8.57;;;;;;;;;;5052023;28;20123;-69
2022/11/27 04:08:27;;;;;;;19.58;7.30;;;;;;;;;;5034228;28;20119;-69
2022/11/27 04:10:53;;;;;;;22.80;8.48;;;;;;;;;;5050961;28;20063;-70
2022/11/27 04:13:19;;;;;;;20.52;7.38;;;;;;;;;;5051139;28;20056;-70
2022/11/27 04:15:45;;;;;;;25.05;7.65;;;;;;;;;;5051899;28;20029;-69
2022/11/27 04:18:11;;;;;;;26.80;8.55;;;;;;;;;;5050871;28;20041;-69
2022/11/27 04:20:37;;;;;;;25.55;8.45;;;;;;;;;;5076211;28;20041;-69
2022/11/27 04:23:03;;;;;;;28.50;8.13;;;;;;;;;;5050741;28;20519;-70
2022/11/27 04:25:29;;;;;;;29.48;8.38;;;;;;;;;;5034393;28;20048;-68
2022/11/27 04:27:55;;;;;;;26.75;8.35;;;;;;;;;;5050570;28;20045;-69
2022/11/27 04:30:22;;;;;;;24.15;8.40;;;;;;;;;;5047988;28;20033;-70
2022/11/27 04:32:48;;;;;;;24.40;9.45;;;;;;;;;;5050644;28;20037;-69
2022/11/27 04:35:14;;;;;;;25.73;9.63;;;;;;;;;;5050849;28;20041;-70
2022/11/27 04:37:40;;;;;;;21.48;7.50;;;;;;;;;;5050584;28;20129;-69
2022/11/27 04:40:06;;;;;;;23.63;7.95;;;;;;;;;;5052051;28;20040;-69
2022/11/27 04:42:32;;;;;;;18.40;8.00;;;;;;;;;;5031137;28;20040;-70
2022/11/27 04:44:58;;;;;;;17.63;7.55;;;;;;;;;;5050527;28;20048;-69
2022/11/27 04:47:24;;;;;;;21.23;8.70;;;;;;;;;;5050559;28;20049;-70
2022/11/27 04:49:50;;;;;;;19.55;7.85;;;;;;;;;;5034073;28;20090;-69
2022/11/27 04:52:16;;;;;;;29.58;8.88;;;;;;;;;;5049962;28;20107;-68
2022/11/27 04:54:42;;;;;;;22.58;7.85;;;;;;;;;;5051929;28;20063;-68
2022/11/27 04:57:08;;;;;;;36.17;9.80;;;;;;;;;;5054147;28;20081;-69
2022/11/27 04:59:35;;;;;;;24.30;9.25;;;;;;;;;;5037713;28;20359;-69
2022/11/27 05:02:01;;;;;;;15.07;7.75;;;;;;;;;;5037826;28;20507;-68
2022/11/27 05:04:27;;;;;;;23.35;8.35;;;;;;;;;;5054753;28;20052;-68
2022/11/27 05:06:53;;;;;;;24.73;8.27;;;;;;;;;;5055466;28;20081;-68
2022/11/27 05:09:19;;;;;;;24.13;9.85;;;;;;;;;;5055378;28;20037;-69
2022/11/27 05:11:45;;;;;;;22.40;8.02;;;;;;;;;;5054401;28;20115;-69
2022/11/27 05:14:15;;;;;;;19.48;8.50;;;;;;;;;;5054204;28;20044;-69
2022/11/27 05:16:42;;;;;;;22.35;7.93;;;;;;;;;;5054247;28;20405;-69
2022/11/27 05:19:09;;;;;;;24.05;8.15;;;;;;;;;;5053815;28;20131;-69
2022/11/27 05:21:35;;;;;;;26.67;8.05;;;;;;;;;;5053837;28;20071;-69
2022/11/27 05:24:01;;;;;;;18.25;7.13;;;;;;;;;;5053769;28;20037;-68
2022/11/27 05:26:27;;;;;;;18.27;7.57;;;;;;;;;;5051404;28;20441;-68
2022/11/27 05:28:53;;;;;;;19.88;7.88;;;;;;;;;;5053309;28;20045;-68
2022/11/27 05:31:19;;;;;;;19.02;8.25;;;;;;;;;;5053894;28;20036;-68
2022/11/27 05:33:46;;;;;;;16.52;7.47;;;;;;;;;;5053945;28;20392;-68
2022/11/27 05:36:12;;;;;;;27.45;7.72;;;;;;;;;;5053620;28;20041;-68
2022/11/27 05:38:38;;;;;;;18.42;7.25;;;;;;;;;;5054796;28;20044;-68
2022/11/27 05:41:04;;;;;;;19.13;7.55;;;;;;;;;;5053491;28;20033;-68
2022/11/27 05:43:30;;;;;;;22.20;8.15;;;;;;;;;;5019118;28;20041;-69
2022/11/27 05:45:56;;;;;;;19.77;7.40;;;;;;;;;;5054874;28;20036;-69
2022/11/27 05:48:22;;;;;;;16.42;7.40;;;;;;;;;;5053327;28;20049;-69
2022/11/27 05:50:48;;;;;;;21.90;7.43;;;;;;;;;;5072283;28;20063;-69
2022/11/27 05:53:14;;;;;;;21.48;7.72;;;;;;;;;;5053645;28;20033;-69
2022/11/27 05:55:40;;;;;;;19.52;6.97;;;;;;;;;;5053526;28;20037;-69
2022/11/27 05:58:07;;;;;;;23.98;7.25;;;;;;;;;;5052964;28;20465;-69
2022/11/27 06:00:33;;;;;;;21.10;7.72;;;;;;;;;;5053291;28;20393;-69
2022/11/27 06:02:59;;;;;;;13.63;6.45;;;;;;;;;;5053391;28;20397;-69
2022/11/27 06:05:25;;;;;;;20.08;6.68;;;;;;;;;;5052771;28;20110;-69
2022/11/27 06:07:51;;;;;;;18.67;6.65;;;;;;;;;;5035726;28;20107;-69
2022/11/27 06:10:17;;;;;;;16.70;6.25;;;;;;;;;;5036714;28;20106;-69
2022/11/27 06:12:43;;;;;;;21.27;7.40;;;;;;;;;;5036354;28;20032;-69
2022/11/27 06:15:09;;;;;;;15.82;6.55;;;;;;;;;;5054422;28;20394;-69
2022/11/27 06:17:35;;;;;;;20.05;6.38;;;;;;;;;;5053063;28;20119;-69
2022/11/27 06:20:01;;;;;;;14.95;6.72;;;;;;;;;;5036573;28;20036;-69
2022/11/27 06:22:27;;;;;;;20.05;6.43;;;;;;;;;;5036471;28;20111;-69
2022/11/27 06:24:53;;;;;;;18.98;5.72;;;;;;;;;;5052802;28;20074;-69
2022/11/27 06:27:20;;;;;;;13.13;6.38;;;;;;;;;;5052654;28;20048;-69
2022/11/27 06:29:46;;;;;;;21.13;6.35;;;;;;;;;;5035969;28;20535;-69
2022/11/27 06:32:12;;;;;;;16.77;6.40;;;;;;;;;;5052500;28;20089;-69
2022/11/27 06:34:38;;;;;;;15.95;6.22;;;;;;;;;;5052806;28;20043;-70
2022/11/27 06:37:04;;;;;;;17.65;6.55;;;;;;;;;;5051348;28;20037;-69
2022/11/27 06:39:30;;;;;;;19.83;6.82;;;;;;;;;;5035915;28;20044;-69
2022/11/27 06:41:56;;;;;;;14.55;6.18;;;;;;;;;;5052458;28;20037;-69
2022/11/27 06:44:22;;;;;;;22.05;6.55;;;;;;;;;;5082746;28;20031;-69
2022/11/27 06:46:48;;;;;;;18.80;6.18;;;;;;;;;;5052122;28;20049;-69
2022/11/27 06:49:14;;;;;;;15.93;5.78;;;;;;;;;;5051755;28;20033;-69
2022/11/27 06:51:40;;;;;;;21.15;6.30;;;;;;;;;;5052417;28;20037;-69
2022/11/27 06:54:06;;;;;;;17.00;6.13;;;;;;;;;;5052394;28;20493;-69
2022/11/27 06:56:32;;;;;;;15.55;6.85;;;;;;;;;;5051540;28;20098;-69
2022/11/27 06:58:59;;;;;;;22.92;7.72;;;;;;;;;;5035570;28;20041;-69
2022/11/27 07:01:26;;;;;;;14.95;5.50;;;;;;;;;;5051899;28;20110;-69
2022/11/27 07:03:52;;;;;;;16.00;7.07;;;;;;;;;;5052344;28;20045;-69
2022/11/27 07:06:20;;;;;;;22.10;6.60;;;;;;;;;;5052813;28;20036;-69
2022/11/27 07:08:46;;;;;;;26.08;7.25;;;;;;;;;;5051614;28;20102;-68
2022/11/27 07:11:12;;;;;;;16.98;6.25;;;;;;;;;;5051755;28;20470;-68
2022/11/27 07:13:38;;;;;;;16.00;5.65;;;;;;;;;;5051866;28;20041;-68
2022/11/27 07:16:06;;;;;;;16.85;6.00;;;;;;;;;;5051465;28;20083;-70
2022/11/27 07:18:36;;;;;;;24.00;6.20;;;;;;;;;;5034965;28;20447;-69
2022/11/27 07:21:03;;;;;;;17.02;6.03;;;;;;;;;;5051432;28;20120;-69
2022/11/27 07:23:29;;;;;;;13.63;6.03;;;;;;;;;;5049448;28;20068;-69
2022/11/27 07:25:55;;;;;;;21.42;6.38;;;;;;;;;;5051657;28;20442;-69
2022/11/27 07:28:21;;;;;;;19.48;6.07;;;;;;;;;;5051403;28;20040;-69
2022/11/27 07:30:57;;;;;;;21.90;6.20;;;;;;;;;;5051397;28;20552;-71
2022/11/27 07:33:23;;;;;;;17.35;6.03;;;;;;;;;;5051415;28;20094;-69
2022/11/27 07:35:49;;;;;;;17.73;5.55;;;;;;;;;;5051319;28;20039;-69
2022/11/27 07:38:15;;;;;;;20.02;6.35;;;;;;;;;;5051209;28;20098;-69
2022/11/27 07:40:41;;;;;;;14.77;5.80;;;;;;;;;;5035261;28;20083;-68
2022/11/27 07:43:07;;;;;;;14.82;4.97;;;;;;;;;;5051483;28;20162;-68
2022/11/27 07:45:33;;;;;;;14.88;5.68;;;;;;;;;;5051521;28;20084;-69
2022/11/27 07:47:59;;;;;;;14.60;5.72;;;;;;;;;;5051404;28;20071;-68
2022/11/27 07:50:25;;;;;;;17.95;5.50;;;;;;;;;;5051164;28;20103;-68
2022/11/27 07:52:52;;;;;;;22.70;5.50;;;;;;;;;;5051141;28;20047;-69
2022/11/27 07:55:18;;;;;;;12.02;5.38;;;;;;;;;;5052370;28;20444;-69
2022/11/27 07:57:44;;;;;;;17.50;5.95;;;;;;;;;;5072937;28;20060;-69
2022/11/27 08:00:10;;;;;;;11.32;5.28;;;;;;;;;;5034563;28;20044;-69
2022/11/27 08:02:36;;;;;;;12.88;5.00;;;;;;;;;;5031029;28;20049;-68
2022/11/27 08:05:02;;;;;;;16.60;6.38;;;;;;;;;;5066681;28;20044;-69
2022/11/27 08:07:29;;;;;;;11.80;4.93;;;;;;;;;;5050569;28;20040;-69
2022/11/27 08:09:57;;;;;;;16.65;5.50;;;;;;;;;;5034327;28;20358;-68
2022/11/27 08:12:24;;;;;;;15.00;5.32;;;;;;;;;;5034820;28;20041;-69
2022/11/27 08:14:50;;;;;;;17.48;5.70;;;;;;;;;;5050693;28;20056;-68
2022/11/27 08:17:16;;;;;;;20.88;6.38;;;;;;;;;;5034342;28;20078;-69
2022/11/27 08:19:42;;;;;;;17.98;6.68;;;;;;;;;;5050452;28;20033;-69
2022/11/27 08:22:15;;;;;;;18.35;5.78;;;;;;;;;;5050497;28;20069;-69
2022/11/27 08:24:42;;;;;;;17.33;5.85;;;;;;;;;;5032314;28;20041;-68
2022/11/27 08:27:08;;;;;;;18.17;5.38;;;;;;;;;;5050457;28;20105;-69
2022/11/27 08:29:34;;;;;;;15.23;5.07;;;;;;;;;;5052142;28;20129;-68
2022/11/27 08:32:00;;;;;;;18.02;5.20;;;;;;;;;;5054769;28;20059;-69
2022/11/27 08:34:26;;;;;;;19.45;7.10;;;;;;;;;;5055951;28;20037;-69
2022/11/27 08:36:53;;;;;;;11.07;5.20;;;;;;;;;;5054442;28;20049;-70
2022/11/27 08:39:19;;;;;;;21.98;6.25;;;;;;;;;;5054521;28;20055;-69
2022/11/27 08:41:45;;;;;;;18.50;6.10;;;;;;;;;;5054675;28;20055;-69
2022/11/27 08:44:11;;;;;;;19.95;5.78;;;;;;;;;;5054358;28;20068;-69
2022/11/27 08:46:37;;;;;;;13.80;5.35;;;;;;;;;;5054435;28;20091;-69
2022/11/27 08:49:03;;;;;;;16.00;5.45;;;;;;;;;;5051998;28;20044;-70
2022/11/27 08:51:29;;;;;;;18.27;5.38;;;;;;;;;;5054700;28;20041;-69
2022/11/27 08:53:55;;;;;;;23.00;5.80;;;;;;;;;;5054537;28;20094;-70
2022/11/27 08:56:25;;;;;;;16.92;5.88;;;;;;;;;;5038458;28;20065;-70
2022/11/27 08:58:51;;;;;;;16.55;5.85;;;;;;;;;;5054643;28;20119;-69
2022/11/27 09:01:22;;;;;;;15.70;5.47;;;;;;;;;;5054210;28;20083;-69
2022/11/27 09:03:49;;;;;;;20.80;7.32;;;;;;;;;;5037458;28;20051;-70
2022/11/27 09:06:16;;;;;;;16.00;5.50;;;;;;;;;;5054226;28;20048;-70
2022/11/27 09:08:43;;;;;;;13.25;5.82;;;;;;;;;;5054357;28;20029;-69
2022/11/27 09:11:10;;;;;;;13.73;5.38;;;;;;;;;;5037783;28;20130;-70
2022/11/27 09:13:36;;;;;;;12.48;6.10;;;;;;;;;;5054115;28;20041;-66
2022/11/27 09:16:07;;;;;;;14.85;5.93;;;;;;;;;;5053666;28;20465;-66
2022/11/27 09:18:33;;;;;;;14.25;6.07;;;;;;;;;;5054846;28;20048;-66
2022/11/27 09:21:00;;;;;;;17.17;6.15;;;;;;;;;;5053524;28;20041;-66
2022/11/27 09:23:27;;;;;;;13.52;5.25;;;;;;;;;;5054044;28;20136;-67
2022/11/27 09:25:53;;;;;;;12.75;5.82;;;;;;;;;;5050385;28;20037;-66
2022/11/27 09:28:20;;;;;;;16.58;6.68;;;;;;;;;;5052279;28;20048;-66
2022/11/27 09:30:46;;;;;;;19.13;5.70;;;;;;;;;;5054705;28;20405;-66
2022/11/27 09:33:12;;;;;;;16.83;6.30;;;;;;;;;;5052325;28;20033;-66
2022/11/27 09:35:38;;;;;;;21.05;5.95;;;;;;;;;;5053471;28;20078;-66
2022/11/27 09:38:04;;;;;;;21.27;6.00;;;;;;;;;;5036087;28;20033;-66
2022/11/27 09:40:30;;;;;;;14.45;5.85;;;;;;;;;;5054459;28;20032;-66
2022/11/27 09:43:00;;;;;;;16.85;5.82;;;;;;;;;;5053483;28;20037;-66
2022/11/27 09:45:27;;;;;;;18.55;5.93;;;;;;;;;;5054559;28;20520;-66
2022/11/27 09:47:55;;;;;;;19.25;7.40;;;;;;;;;;5050866;28;20125;-66
2022/11/27 09:50:29;;;;;;;16.98;6.65;;;;;;;;;;5054325;28;20051;-66
2022/11/27 09:53:14;;;;;;;18.80;6.25;;;;;;;;;;5052646;28;20428;-66
2022/11/27 09:55:43;;;;;;;19.15;6.00;;;;;;;;;;5052419;28;20158;-66
2022/11/27 09:58:21;;;;;;;20.50;6.57;;;;;;;;;;5055013;28;20095;-66
2022/11/27 10:00:47;;;;;;;15.90;6.47;;;;;;;;;;5083287;28;20045;-66
2022/11/27 10:03:15;;;;;;;17.15;6.63;;;;;;;;;;5053675;28;20075;-66
2022/11/27 10:06:13;;;;;;;15.60;6.40;;;;;;;;;;5053929;28;20430;-66
2022/11/27 10:08:47;;;;;;;15.68;5.95;;;;;;;;;;5042585;28;20531;-67
2022/11/27 10:11:13;;;;;;;15.52;5.95;;;;;;;;;;5054654;28;20381;-66
2022/11/27 10:13:47;;;;;;;17.27;6.15;;;;;;;;;;5053175;28;20048;-66
2022/11/27 10:16:22;;;;;;;24.00;6.65;;;;;;;;;;5052147;28;20450;-66
2022/11/27 10:18:47;;;;;;;14.93;5.68;;;;;;;;;;5053880;28;20076;-66
2022/11/27 10:21:22;;;;;;;17.05;6.35;;;;;;;;;;5053408;28;20083;-66
2022/11/27 10:23:56;;;;;;;16.92;7.65;;;;;;;;;;5055126;28;20547;-66
2022/11/27 10:26:27;;;;;;;17.40;6.47;;;;;;;;;;5053227;28;20033;-66
2022/11/27 10:29:19;;;;;;;19.77;6.40;;;;;;;;;;5053690;28;20119;-66
2022/11/27 10:31:45;;;;;;;15.93;6.28;;;;;;;;;;5053594;28;20041;-68
2022/11/27 10:34:25;;;;;;;16.92;6.45;;;;;;;;;;5054732;28;20055;-69
2022/11/27 10:36:53;;;;;;;19.90;6.95;;;;;;;;;;5053020;28;20068;-69
2022/11/27 10:39:30;;;;;;;17.67;6.53;;;;;;;;;;5053648;28;20045;-69
2022/11/27 10:42:03;;;;;;;22.60;6.72;;;;;;;;;;5053040;28;20036;-68
2022/11/27 10:44:37;;;;;;;22.67;8.20;;;;;;;;;;5054681;28;20501;-68
2022/11/27 10:47:06;;;;;;;18.33;6.32;;;;;;;;;;5054362;28;20390;-69
2022/11/27 10:49:33;;;;;;;17.73;7.28;;;;;;;;;;5053179;28;20119;-69
2022/11/27 10:51:59;;;;;;;19.17;7.20;;;;;;;;;;5052092;28;20033;-69
2022/11/27 10:54:27;;;;;;;22.58;7.05;;;;;;;;;;5053535;28;20072;-69
2022/11/27 10:57:05;;;;;;;19.63;7.72;;;;;;;;;;5052696;28;20107;-69
2022/11/27 10:59:34;;;;;;;25.05;7.65;;;;;;;;;;5052896;28;20420;-69
2022/11/27 11:02:02;;;;;;;18.10;7.07;;;;;;;;;;5035778;28;20041;-69
2022/11/27 11:04:30;;;;;;;22.52;7.07;;;;;;;;;;5036855;28;20048;-69
2022/11/27 11:06:56;;;;;;;19.02;7.32;;;;;;;;;;5036039;28;20048;-69
2022/11/27 11:09:23;;;;;;;23.77;7.72;;;;;;;;;;5052691;28;20052;-69
2022/11/27 11:11:49;;;;;;;18.77;6.47;;;;;;;;;;5052549;28;20119;-69
2022/11/27 11:14:16;;;;;;;18.55;7.63;;;;;;;;;;5052660;28;20079;-69
2022/11/27 11:16:43;;;;;;;19.88;7.10;;;;;;;;;;5036266;28;20040;-69
2022/11/27 11:19:28;;;;;;;20.02;7.85;;;;;;;;;;5036423;28;20493;-68
2022/11/27 11:21:54;;;;;;;21.25;8.13;;;;;;;;;;5032935;28;20049;-69
2022/11/27 11:24:20;;;;;;;24.63;7.45;;;;;;;;;;5049371;28;20044;-69
2022/11/27 11:26:54;;;;;;;22.85;8.15;;;;;;;;;;5053808;28;20484;-69
2022/11/27 11:29:39;;;;;;;21.30;7.70;;;;;;;;;;5051968;28;20120;-69
2022/11/27 11:32:15;;;;;;;20.15;8.52;;;;;;;;;;5052219;28;20068;-69
2022/11/27 11:34:46;;;;;;;19.63;7.82;;;;;;;;;;5050251;28;20545;-69
2022/11/27 11:37:23;;;;;;;18.70;7.03;;;;;;;;;;5053082;28;20056;-69
2022/11/27 11:39:54;;;;;;;22.70;8.02;;;;;;;;;;5050826;28;20045;-69
2022/11/27 11:42:25;;;;;;;17.83;7.30;;;;;;;;;;5077575;28;20040;-69
2022/11/27 11:45:21;;;;;;;18.15;7.78;;;;;;;;;;5052978;28;20370;-68
2022/11/27 11:47:57;;;;;;;21.25;7.30;;;;;;;;;;5046407;28;20072;-68
2022/11/27 11:50:44;;;;;;;16.65;7.50;;;;;;;;;;5076305;28;20473;-69
2022/11/27 11:53:29;;;;;;;17.40;6.97;;;;;;;;;;5049978;28;20033;-69
2022/11/27 11:56:04;;;;;;;18.70;7.18;;;;;;;;;;5072688;28;20489;-69
2022/11/27 11:58:37;;;;;;;21.90;8.68;;;;;;;;;;5049919;28;20187;-69
2022/11/27 12:01:06;;;;;;;26.33;8.77;;;;;;;;;;5049078;28;20037;-69
2022/11/27 12:03:39;;;;;;;25.80;8.95;;;;;;;;;;5051212;28;20047;-69
2022/11/27 12:06:12;;;;;;;23.98;9.20;;;;;;;;;;5051314;28;20040;-69
2022/11/27 12:08:50;;;;;;;25.92;8.93;;;;;;;;;;5051455;28;20041;-69
2022/11/27 12:11:18;;;;;;;20.42;8.52;;;;;;;;;;5051821;28;20094;-69
2022/11/27 12:13:50;;;;;;;26.95;8.73;;;;;;;;;;5052649;28;20037;-69
2022/11/27 12:16:16;;;;;;;26.00;8.85;;;;;;;;;;5051962;28;20137;-69
2022/11/27 12:18:53;;;;;;;22.08;8.00;;;;;;;;;;5051726;28;20469;-69
2022/11/27 12:21:27;;;;;;;17.52;8.55;;;;;;;;;;5035518;28;20040;-69
2022/11/27 12:23:57;;;;;;;20.55;7.90;;;;;;;;;;5051319;28;20041;-69
2022/11/27 12:26:43;;;;;;;20.58;8.00;;;;;;;;;;5051419;28;20442;-69
2022/11/27 12:29:38;;;;;;;21.38;8.10;;;;;;;;;;5051331;28;20124;-68
2022/11/27 12:32:23;;;;;;;18.33;8.23;;;;;;;;;;5047469;28;20083;-68
2022/11/27 12:34:58;;;;;;;24.75;8.27;;;;;;;;;;5052003;28;20045;-69
2022/11/27 12:37:47;;;;;;;17.75;7.63;;;;;;;;;;5035739;28;20539;-69
2022/11/27 12:40:22;;;;;;;22.75;8.25;;;;;;;;;;5048692;28;20118;-68
2022/11/27 12:42:49;;;;;;;21.50;8.40;;;;;;;;;;5051727;28;20044;-68
2022/11/27 12:45:17;;;;;;;22.38;9.45;;;;;;;;;;5051813;28;20048;-69
2022/11/27 12:47:46;;;;;;;23.05;8.18;;;;;;;;;;5051457;28;20079;-68
2022/11/27 12:50:26;;;;;;;19.67;8.48;;;;;;;;;;5051241;28;20124;-69
2022/11/27 12:52:59;;;;;;;16.60;7.50;;;;;;;;;;5051579;28;20055;-69
2022/11/27 12:55:28;;;;;;;22.25;8.52;;;;;;;;;;5051377;28;20041;-69
2022/11/27 12:57:58;;;;;;;21.70;8.93;;;;;;;;;;5051088;28;20056;-68
2022/11/27 13:00:28;;;;;;;21.58;8.90;;;;;;;;;;5051208;28;20385;-69
2022/11/27 13:03:13;;;;;;;19.35;8.48;;;;;;;;;;5051540;28;20091;-69
2022/11/27 13:05:51;;;;;;;21.42;8.13;;;;;;;;;;5050958;28;20065;-69
2022/11/27 13:08:23;;;;;;;20.23;9.13;;;;;;;;;;5051116;28;20045;-69
2022/11/27 13:10:54;;;;;;;19.55;8.70;;;;;;;;;;5051122;28;20044;-69
2022/11/27 13:13:27;;;;;;;23.63;8.88;;;;;;;;;;5051396;28;20480;-69
2022/11/27 13:16:00;;;;;;;23.38;9.07;;;;;;;;;;5052343;28;20052;-69
2022/11/27 13:18:46;;;;;;;20.88;8.27;;;;;;;;;;5054714;28;20052;-69
2022/11/27 13:21:18;;;;;;;19.60;8.23;;;;;;;;;;5054492;28;20071;-69
2022/11/27 13:23:44;;;;;;;29.30;8.63;;;;;;;;;;5056307;28;20079;-69
2022/11/27 13:26:15;;;;;;;22.13;8.52;;;;;;;;;;5054848;28;20151;-69
2022/11/27 13:28:43;;;;;;;23.83;8.30;;;;;;;;;;5054415;28;20079;-69
2022/11/27 13:31:18;;;;;;;19.65;8.70;;;;;;;;;;5054444;28;20044;-69
2022/11/27 13:33:45;;;;;;;18.33;8.30;;;;;;;;;;5054796;28;20389;-69
2022/11/27 13:36:22;;;;;;;24.27;8.85;;;;;;;;;;5037596;28;20040;-69
2022/11/27 13:38:55;;;;;;;22.98;9.10;;;;;;;;;;5037868;28;20040;-68
2022/11/27 13:41:22;;;;;;;21.25;8.75;;;;;;;;;;5054382;28;20051;-69
2022/11/27 13:43:49;;;;;;;23.58;8.27;;;;;;;;;;5054771;28;20063;-69
2022/11/27 13:46:23;;;;;;;23.23;8.43;;;;;;;;;;5054727;28;20067;-69
2022/11/27 13:48:52;;;;;;;27.00;9.10;;;;;;;;;;5054091;28;20123;-69
2022/11/27 13:51:25;;;;;;;22.73;8.52;;;;;;;;;;5052754;28;20102;-69
2022/11/27 13:53:51;;;;;;;25.08;9.63;;;;;;;;;;5053730;28;20045;-69
2022/11/27 13:56:27;;;;;;;24.55;9.15;;;;;;;;;;5054121;28;20148;-69
2022/11/27 13:58:53;;;;;;;17.88;7.85;;;;;;;;;;5054077;28;20055;-69
2022/11/27 14:01:21;;;;;;;19.30;8.30;;;;;;;;;;5053695;28;20106;-69
2022/11/27 14:03:47;;;;;;;21.65;9.52;;;;;;;;;;5055445;28;20059;-69
2022/11/27 14:06:34;;;;;;;18.98;8.95;;;;;;;;;;5037073;28;20075;-69
2022/11/27 14:09:04;;;;;;;21.35;8.38;;;;;;;;;;5077211;28;20067;-69
2022/11/27 14:11:38;;;;;;;19.48;8.43;;;;;;;;;;5053740;28;20464;-69
2022/11/27 14:14:12;;;;;;;24.15;8.95;;;;;;;;;;5045588;28;20079;-69
2022/11/27 14:16:38;;;;;;;22.17;9.00;;;;;;;;;;5053862;28;20037;-69
2022/11/27 14:19:24;;;;;;;22.13;8.55;;;;;;;;;;5067350;28;20125;-68
2022/11/27 14:21:51;;;;;;;19.23;8.95;;;;;;;;;;5035810;28;20089;-69
2022/11/27 14:24:30;;;;;;;16.40;8.10;;;;;;;;;;5067818;28;20056;-68
2022/11/27 14:26:56;;;;;;;22.10;8.85;;;;;;;;;;5032815;28;20045;-69
2022/11/27 14:29:23;;;;;;;21.00;9.15;;;;;;;;;;5053553;28;20041;-69
2022/11/27 14:31:56;;;;;;;18.63;9.18;;;;;;;;;;5053650;28;20041;-69
2022/11/27 14:34:26;;;;;;;19.38;8.60;;;;;;;;;;5050776;28;20044;-69
2022/11/27 14:36:53;;;;;;;15.70;7.80;;;;;;;;;;5053537;28;20032;-69
2022/11/27 14:39:23;;;;;;;23.50;9.90;;;;;;;;;;5052426;28;20110;-69
2022/11/27 14:41:59;;;;;;;22.02;8.82;;;;;;;;;;5052302;28;20041;-69